Aviation Digital Data Service (ADDS)

Output produced by METARs form (0015 UTC 24 May 2022)
found at http://www.aviationweather.gov/metar/data/
 
LGPZ 232350Z 00000KT 9999 SCT008 17/16 Q1012 RMK FEW200 BLU
TAF LGPZ 232300Z 2400/2424 VRB05KT 9999 FEW020 
     TEMPO 2400/2406 SCT006 
     PROB30 
     TEMPO 2400/2404 4000 BR BKN004 
     TEMPO 2412/2418 27012KT
       
LGAD 232350Z 00000KT 9999 FEW025 15/14 Q1012
TAF LGAD 232300Z 2400/2409 VRB03KT 9999 FEW020
       
LGRX 232150Z 00000KT 9999 FEW030 18/17 Q1012 RMK FEW200 BLU
TAF LGRX 232300Z 2400/2409 VRB03KT 9999 FEW020
       
LGHI 231850Z 00000KT CAVOK 21/18 Q1008
TAF LGHI 232300Z 2400/2409 VRB03KT 9999 FEW020
       
LGRP 232350Z 23007KT 9999 FEW018 20/15 Q1009 NOSIG
TAF LGRP 232300Z 2400/2424 24012KT 9999 FEW018 
     TEMPO 2412/2418 24012G22KT
       
LGAL 232350Z 00000KT 9999 FEW025 17/13 Q1010
TAF LGAL 232300Z 2400/2409 06010KT 9999 FEW020 SCT060
       
LGEL 232350Z VRB02KT 9999 FEW025 20/12 Q1010
TAF LGEL 232300Z 2400/2424 VRB05KT 9999 FEW020 
     TEMPO 2410/2417 18012KT
       
LGAV 232350Z 21004KT 9999 FEW030 19/11 Q1010 NOSIG
TAF LGAV 232300Z 2400/2424 VRB05KT 9999 FEW025 
     TEMPO 2412/2417 14010KT
       
LGKZ 232350Z AUTO 01005KT //// // ////// 15/13 Q1012 RE//
TAF LGIO 232300Z 2400/2409 VRB03KT 9999 FEW025
       
LGKR 232350Z 17003KT CAVOK 19/15 Q1011 NOSIG
TAF LGKR 232300Z 2400/2424 15010KT 9999 FEW018 
     PROB30 
     TEMPO 2400/2406 5000 BR SCT008
       
LGKL 232350Z 33008KT CAVOK 16/14 Q1011
TAF LGKL 232300Z 2400/2409 32006KT 9999 FEW025 
     BECMG 2407/2409 17008KT
       
LGKP 240000Z AUTO 29014KT //// // ////// 19/17 Q1009 RE//
TAF LGKP 232300Z 2400/2409 30018KT CAVOK
       
TAF LGTL 232300Z 2400/2409 01008KT 9999 FEW020
       
LGKF 231950Z 00000KT 8000 SCT010 SCT018 19/19 Q1012
TAF LGKF 232300Z 2400/2409 VRB05KT 7000 SCT010 SCT018 
     PROB40 
     TEMPO 2400/2406 3000 BR BKN005
       
TAF LGKC 232300Z 2400/2409 27010KT 9000 SCT010 
     TEMPO 2400/2403 27010G20KT
       
LGKO 232350Z 30009KT CAVOK 18/15 Q1010
TAF LGKO 232300Z 2400/2424 29010KT 9999 FEW020
       
TAF LGLR 232300Z 2400/2409 VRB03KT 9999 FEW025
       
LGLM 232350Z 00000KT CAVOK 18/13 Q1008
TAF LGLM 232300Z 2400/2409 19005KT CAVOK 
     BECMG 2401/2403 06010KT
       
LGTS 232350Z 12003KT 9999 FEW030 17/15 Q1009 NOSIG
TAF LGTS 232300Z 2400/2424 VRB03KT CAVOK 
     BECMG 2409/2411 16013KT 9999 FEW025 
     PROB30 2412/2418 FEW020TCU 
     BECMG 2418/2420 VRB03KT CAVOK
       
LGKV 231920Z 05004KT 9999 FEW030 21/16 Q1008
TAF LGKV 232300Z 2400/2424 VRB03KT CAVOK 
     BECMG 2409/2411 9999 FEW025 SCT080 
     PROB30 2412/2418 FEW020TCU SCT025 SCT080 
     BECMG 2418/2420 CAVOK
       
LGMK 232350Z 00000KT CAVOK 20/13 Q1010
TAF LGMK 232300Z 2400/2409 VRB05KT 9999 FEW010
       
LGMT 232350Z VRB02KT 9999 FEW025 22/15 Q1010
TAF LGMT 232300Z 2400/2409 VRB03KT 9999 FEW020
       
LGBL 232350Z 00000KT 9999 FEW030 17/14 Q1009
TAF LGBL 232300Z 2400/2409 26006KT 9999 FEW025 
     BECMG 2407/2409 10010KT
       
LGIR 232350Z 16005KT 9999 FEW080 16/14 Q1011 NOSIG
TAF LGIR 232300Z 2400/2424 18008KT 9999 FEW020 
     BECMG 2409/2411 32014KT
       
LGSM 232350Z 00000KT CAVOK 18/14 Q1009
TAF LGSM 232300Z 2400/2409 VRB03KT 9999 FEW020
       
LGSR 232350Z 20002KT CAVOK 19/17 Q1010
TAF LGSR 232300Z 2400/2424 27012KT 9999 FEW020
       
LGSK 231850Z VRB03KT 9999 FEW018TCU SCT025 21/18 Q1009
TAF LGSK 232300Z 2400/2409 VRB05KT 9999 FEW018 SCT025
       
TAF LGSY 232300Z 2400/2409 18006KT CAVOK
       
LGSA 232350Z 30007KT 9999 FEW070 19/13 Q1011
TAF LGSA 232300Z 2400/2424 27010KT 9999 FEW020 
     TEMPO 2400/2415 27010G20KT
       
LGSO 232350Z AUTO 23006KT //// // ////// 20/13 Q1010 RE//
TAF LGTG 232300Z 2400/2409 33006KT 9999 FEW025
       
LGZA 231850Z 00000KT CAVOK 21/18 Q1011
TAF LGZA 232300Z 2400/2409 VRB05KT 9000 FEW010 
     PROB40 
     TEMPO 2400/2406 4000 BR BKN005